Time;durP1;ratioP1;P1;durP2;ratioP2;P2;SDS_P1;SDS_P2;PMS_P1;PMS_P2;Temp;Humidity;BMP_temperature;BMP_pressure;BME280_temperature;BME280_humidity;BME280_pressure;Samples;Min_cycle;Max_cycle;Signal;HPM_P1;HPM_P2
2022/11/12 00:02:11;;;;;;;90.75;33.63;;;;;;;;;;1734658;82;22137;-91
2022/11/12 00:04:37;;;;;;;103.92;36.38;;;;;;;;;;1734719;82;20841;-91
2022/11/12 00:07:02;;;;;;;107.17;37.08;;;;;;;;;;1734820;82;21316;-91
2022/11/12 00:09:28;;;;;;;115.17;40.40;;;;;;;;;;1734775;82;21705;-91
2022/11/12 00:11:54;;;;;;;117.93;40.08;;;;;;;;;;1734775;82;21880;-91
2022/11/12 00:14:19;;;;;;;123.15;41.53;;;;;;;;;;1734960;82;20825;-91
2022/11/12 00:16:45;;;;;;;106.43;35.35;;;;;;;;;;1734941;82;21431;-92
2022/11/12 00:19:11;;;;;;;115.88;37.50;;;;;;;;;;1713986;82;20802;-91
2022/11/12 00:21:36;;;;;;;106.15;37.23;;;;;;;;;;1734881;82;20924;-91
2022/11/12 00:24:02;;;;;;;109.27;38.08;;;;;;;;;;1734918;82;21545;-91
2022/11/12 00:26:28;;;;;;;113.17;38.73;;;;;;;;;;1734899;82;21472;-92
2022/11/12 00:28:53;;;;;;;117.08;40.83;;;;;;;;;;1734778;82;21385;-91
2022/11/12 00:31:19;;;;;;;124.22;41.53;;;;;;;;;;1713785;82;20876;-91
2022/11/12 00:33:44;;;;;;;131.25;43.00;;;;;;;;;;1714081;82;20826;-91
2022/11/12 00:36:11;;;;;;;115.03;39.40;;;;;;;;;;1735040;82;21157;-91
2022/11/12 00:38:36;;;;;;;127.78;44.30;;;;;;;;;;1713935;82;21052;-91
2022/11/12 00:41:02;;;;;;;114.08;40.60;;;;;;;;;;1735112;82;20908;-91
2022/11/12 00:43:28;;;;;;;131.27;42.20;;;;;;;;;;1735334;82;21609;-91
2022/11/12 00:45:53;;;;;;;125.60;42.23;;;;;;;;;;1735285;82;21331;-91
2022/11/12 00:48:19;;;;;;;119.95;39.08;;;;;;;;;;1731686;82;21389;-91
2022/11/12 00:50:45;;;;;;;116.03;38.05;;;;;;;;;;1730195;82;20857;-92
2022/11/12 00:53:10;;;;;;;111.47;36.83;;;;;;;;;;1730267;82;21578;-91
2022/11/12 00:55:36;;;;;;;103.95;34.25;;;;;;;;;;1730111;82;20916;-91
2022/11/12 00:58:02;;;;;;;103.78;32.48;;;;;;;;;;1730244;82;20892;-91
2022/11/12 01:00:27;;;;;;;95.35;30.65;;;;;;;;;;1730159;82;21849;-91
2022/11/12 01:02:54;;;;;;;88.45;30.08;;;;;;;;;;1730378;82;20889;-91
2022/11/12 01:05:21;;;;;;;92.17;29.60;;;;;;;;;;1730322;82;20988;-91
2022/11/12 01:07:47;;;;;;;82.42;28.95;;;;;;;;;;1730328;82;21512;-91
2022/11/12 01:10:13;;;;;;;81.72;28.60;;;;;;;;;;1730219;82;21032;-91
2022/11/12 01:12:39;;;;;;;76.15;27.45;;;;;;;;;;1730242;82;21083;-91
2022/11/12 01:15:06;;;;;;;84.42;28.25;;;;;;;;;;1726823;82;21563;-91
2022/11/12 01:17:32;;;;;;;82.15;28.12;;;;;;;;;;1730245;81;21012;-91
2022/11/12 01:19:58;;;;;;;76.97;25.48;;;;;;;;;;1730181;82;20904;-92
2022/11/12 01:22:24;;;;;;;81.08;26.60;;;;;;;;;;1730141;82;20885;-91
2022/11/12 01:24:50;;;;;;;72.90;25.30;;;;;;;;;;1730072;82;21057;-91
2022/11/12 01:27:15;;;;;;;79.42;27.80;;;;;;;;;;1730177;82;20893;-91
2022/11/12 01:29:41;;;;;;;88.33;27.98;;;;;;;;;;1730452;82;20956;-89
2022/11/12 01:32:07;;;;;;;82.33;28.35;;;;;;;;;;1730370;82;20837;-91
2022/11/12 01:34:33;;;;;;;75.75;27.62;;;;;;;;;;1730289;82;20857;-90
2022/11/12 01:36:58;;;;;;;85.65;28.47;;;;;;;;;;1730255;82;21595;-91
2022/11/12 01:39:24;;;;;;;85.12;26.77;;;;;;;;;;1730049;82;20830;-90
2022/11/12 01:41:50;;;;;;;88.07;29.15;;;;;;;;;;1730406;81;20857;-91
2022/11/12 01:44:21;;;;;;;85.07;28.10;;;;;;;;;;1730328;82;20925;-91
2022/11/12 01:47:07;;;;;;;88.45;29.65;;;;;;;;;;1730373;82;21038;-91
2022/11/12 01:49:53;;;;;;;87.20;27.85;;;;;;;;;;1729821;81;21580;-90
2022/11/12 01:52:29;;;;;;;90.83;29.65;;;;;;;;;;1730115;82;21047;-91
2022/11/12 01:54:57;;;;;;;81.92;29.15;;;;;;;;;;1730316;82;21083;-90
2022/11/12 01:57:29;;;;;;;94.87;30.00;;;;;;;;;;1727355;82;21548;-91
2022/11/12 01:59:57;;;;;;;93.47;29.98;;;;;;;;;;1730190;82;21062;-91
2022/11/12 02:02:23;;;;;;;87.15;29.72;;;;;;;;;;1730283;82;21067;-91
2022/11/12 02:04:49;;;;;;;90.62;30.35;;;;;;;;;;1730094;82;20980;-91
2022/11/12 02:07:15;;;;;;;98.58;30.70;;;;;;;;;;1730297;82;20964;-91
2022/11/12 02:09:41;;;;;;;87.85;30.12;;;;;;;;;;1730174;82;21056;-91
2022/11/12 02:12:07;;;;;;;90.20;32.75;;;;;;;;;;1730298;82;21074;-90
2022/11/12 02:14:33;;;;;;;100.20;31.17;;;;;;;;;;1709351;83;21038;-91
2022/11/12 02:16:59;;;;;;;102.72;32.67;;;;;;;;;;1730030;82;21059;-91
2022/11/12 02:19:25;;;;;;;102.32;33.18;;;;;;;;;;1709503;82;21034;-91
2022/11/12 02:21:51;;;;;;;100.15;30.65;;;;;;;;;;1729995;81;20957;-91
2022/11/12 02:24:20;;;;;;;97.85;30.90;;;;;;;;;;1730226;82;21377;-91
2022/11/12 02:26:50;;;;;;;95.40;31.65;;;;;;;;;;1730369;82;21614;-91
2022/11/12 02:29:16;;;;;;;96.30;32.38;;;;;;;;;;1729720;82;20984;-90
2022/11/12 02:31:42;;;;;;;100.72;32.73;;;;;;;;;;1730090;82;21011;-91
2022/11/12 02:34:07;;;;;;;96.65;31.65;;;;;;;;;;1730138;82;20940;-91
2022/11/12 02:36:33;;;;;;;104.25;32.23;;;;;;;;;;1729953;82;20845;-91
2022/11/12 02:38:59;;;;;;;101.95;31.73;;;;;;;;;;1729952;82;21882;-91
2022/11/12 02:41:25;;;;;;;99.67;31.48;;;;;;;;;;1729708;82;21216;-90
2022/11/12 02:43:50;;;;;;;107.70;33.60;;;;;;;;;;1729655;82;20885;-90
2022/11/12 02:46:16;;;;;;;97.27;31.75;;;;;;;;;;1729852;82;21064;-91
2022/11/12 02:48:42;;;;;;;112.83;34.40;;;;;;;;;;1732784;82;21665;-92
2022/11/12 02:51:08;;;;;;;103.92;33.53;;;;;;;;;;1735247;82;21775;-91
2022/11/12 02:53:34;;;;;;;105.58;34.55;;;;;;;;;;1734708;82;20837;-91
2022/11/12 02:56:00;;;;;;;99.05;34.08;;;;;;;;;;1734617;82;21511;-90
2022/11/12 02:58:26;;;;;;;105.80;33.38;;;;;;;;;;1734590;82;20900;-91
2022/11/12 03:00:51;;;;;;;100.18;32.42;;;;;;;;;;1714106;82;21008;-90
2022/11/12 03:03:17;;;;;;;103.27;33.55;;;;;;;;;;1734822;82;21033;-90
2022/11/12 03:05:44;;;;;;;113.08;35.10;;;;;;;;;;1734934;82;21002;-91
2022/11/12 03:08:09;;;;;;;106.43;34.23;;;;;;;;;;1734731;82;21052;-95
2022/11/12 03:10:39;;;;;;;126.02;36.63;;;;;;;;;;1733575;82;20948;-90
2022/11/12 03:13:05;;;;;;;111.57;35.05;;;;;;;;;;1734673;82;21051;-90
2022/11/12 03:15:31;;;;;;;107.55;34.70;;;;;;;;;;1734811;82;21064;-91
2022/11/12 03:17:58;;;;;;;111.62;36.38;;;;;;;;;;1734943;82;21520;-91
2022/11/12 03:20:25;;;;;;;115.65;38.42;;;;;;;;;;1734331;82;21062;-91
2022/11/12 03:22:56;;;;;;;115.57;35.78;;;;;;;;;;1734982;82;21074;-90
2022/11/12 03:25:21;;;;;;;115.70;36.42;;;;;;;;;;1734709;82;21043;-90
2022/11/12 03:27:47;;;;;;;111.72;35.33;;;;;;;;;;1734871;82;22376;-91
2022/11/12 03:30:13;;;;;;;110.95;35.15;;;;;;;;;;1735127;82;20834;-91
2022/11/12 03:32:39;;;;;;;110.48;34.67;;;;;;;;;;1735017;82;20861;-91
2022/11/12 03:35:05;;;;;;;112.97;36.17;;;;;;;;;;1734819;82;21559;-90
2022/11/12 03:37:31;;;;;;;123.78;37.95;;;;;;;;;;1734733;82;21602;-90
2022/11/12 03:39:56;;;;;;;113.92;34.67;;;;;;;;;;1734486;82;21146;-90
2022/11/12 03:42:22;;;;;;;121.28;34.65;;;;;;;;;;1734860;82;20996;-91
2022/11/12 03:44:47;;;;;;;126.78;35.98;;;;;;;;;;1734907;82;21350;-91
2022/11/12 03:47:13;;;;;;;130.50;37.17;;;;;;;;;;1734848;82;20833;-91
2022/11/12 03:49:39;;;;;;;119.30;34.75;;;;;;;;;;1730877;82;21011;-91
2022/11/12 03:52:04;;;;;;;120.87;34.83;;;;;;;;;;1730193;82;21021;-90
2022/11/12 03:54:30;;;;;;;123.90;35.65;;;;;;;;;;1729993;82;21489;-88
2022/11/12 03:56:55;;;;;;;133.95;35.40;;;;;;;;;;1730143;82;20830;-91
2022/11/12 03:59:21;;;;;;;121.57;34.23;;;;;;;;;;1730194;82;20947;-91
2022/11/12 04:01:47;;;;;;;125.82;35.60;;;;;;;;;;1730119;81;20928;-91
2022/11/12 04:04:13;;;;;;;123.07;35.68;;;;;;;;;;1730234;82;21694;-91
2022/11/12 04:09:22;;;;;;;113.88;34.80;;;;;;;;;;1729724;82;21035;-91
2022/11/12 04:11:48;;;;;;;121.72;35.03;;;;;;;;;;1730252;81;20810;-90
2022/11/12 04:14:13;;;;;;;125.55;38.58;;;;;;;;;;1730201;82;21421;-90
2022/11/12 04:22:09;;;;;;;133.67;39.83;;;;;;;;;;1712391;81;21032;-91
2022/11/12 04:27:30;;;;;;;128.82;36.28;;;;;;;;;;1729864;82;21094;-91
2022/11/12 04:32:46;;;;;;;106.15;35.15;;;;;;;;;;1704630;84;21074;-91
2022/11/12 04:35:12;;;;;;;121.42;34.40;;;;;;;;;;1704970;84;21073;-91
2022/11/12 04:37:44;;;;;;;117.35;34.13;;;;;;;;;;1704890;84;20903;-91
2022/11/12 04:45:43;;;;;;;137.88;38.25;;;;;;;;;;1704748;84;21539;-91
2022/11/12 04:48:09;;;;;;;112.08;34.73;;;;;;;;;;1705645;83;21562;-92
2022/11/12 04:50:34;;;;;;;120.85;36.05;;;;;;;;;;1709832;83;20948;-90
2022/11/12 04:53:00;;;;;;;126.78;36.53;;;;;;;;;;1709400;83;21057;-88
2022/11/12 04:55:26;;;;;;;119.75;37.50;;;;;;;;;;1709848;83;21131;-89
2022/11/12 04:57:51;;;;;;;125.27;37.93;;;;;;;;;;1709683;83;20986;-90
2022/11/12 05:00:17;;;;;;;118.90;36.08;;;;;;;;;;1709512;83;20923;-89
2022/11/12 05:02:43;;;;;;;123.50;35.83;;;;;;;;;;1709664;83;21050;-89
2022/11/12 05:05:09;;;;;;;129.25;36.88;;;;;;;;;;1709799;82;20967;-90
2022/11/12 05:07:34;;;;;;;121.92;36.63;;;;;;;;;;1709456;83;21126;-88
2022/11/12 05:10:00;;;;;;;124.70;35.40;;;;;;;;;;1709445;83;20891;-89
2022/11/12 05:12:26;;;;;;;110.05;33.20;;;;;;;;;;1709657;83;20880;-89
2022/11/12 05:14:52;;;;;;;120.57;33.35;;;;;;;;;;1709725;83;21146;-89
2022/11/12 05:17:17;;;;;;;124.50;35.45;;;;;;;;;;1709658;83;20880;-90
2022/11/12 05:19:43;;;;;;;115.52;34.90;;;;;;;;;;1719982;82;21980;-89
2022/11/12 05:22:10;;;;;;;123.78;34.88;;;;;;;;;;1734616;82;20943;-89
2022/11/12 05:24:41;;;;;;;125.82;34.80;;;;;;;;;;1734771;82;21055;-90
2022/11/12 05:27:10;;;;;;;122.40;33.18;;;;;;;;;;1734899;82;21082;-89
2022/11/12 05:29:36;;;;;;;126.02;33.38;;;;;;;;;;1653528;85;21117;-89
2022/11/12 05:32:02;;;;;;;131.45;33.45;;;;;;;;;;1653719;85;21692;-88
2022/11/12 05:34:28;;;;;;;152.85;34.18;;;;;;;;;;1653057;85;21639;-90
2022/11/12 05:36:54;;;;;;;132.27;35.60;;;;;;;;;;1653042;85;20903;-88
2022/11/12 05:39:20;;;;;;;130.63;35.55;;;;;;;;;;1653540;85;21053;-88
2022/11/12 05:41:47;;;;;;;137.68;36.65;;;;;;;;;;1653263;85;21021;-87
2022/11/12 05:44:13;;;;;;;133.45;33.60;;;;;;;;;;1626609;86;21267;-87
2022/11/12 05:46:39;;;;;;;131.47;35.05;;;;;;;;;;1626490;86;20918;-90
2022/11/12 05:49:04;;;;;;;139.40;35.65;;;;;;;;;;1629418;86;20994;-88
2022/11/12 05:51:30;;;;;;;125.92;33.80;;;;;;;;;;1631550;86;20804;-85
2022/11/12 05:53:56;;;;;;;134.32;34.58;;;;;;;;;;1631383;86;20998;-87
2022/11/12 05:56:22;;;;;;;124.50;33.33;;;;;;;;;;1631689;86;21842;-87
2022/11/12 05:58:48;;;;;;;131.90;34.48;;;;;;;;;;1631554;86;20899;-88
2022/11/12 06:01:13;;;;;;;125.07;30.57;;;;;;;;;;1631929;86;21688;-88
2022/11/12 06:03:39;;;;;;;117.82;31.68;;;;;;;;;;1631429;86;20957;-90
2022/11/12 06:06:07;;;;;;;129.00;32.03;;;;;;;;;;1631510;86;20961;-90
2022/11/12 06:08:32;;;;;;;115.90;31.07;;;;;;;;;;1631689;86;21843;-91
2022/11/12 06:10:58;;;;;;;117.82;30.50;;;;;;;;;;1631767;86;20981;-90
2022/11/12 06:13:25;;;;;;;125.60;32.00;;;;;;;;;;1631674;86;20926;-90
2022/11/12 06:15:52;;;;;;;118.77;31.02;;;;;;;;;;1631503;86;21030;-90
2022/11/12 06:18:18;;;;;;;107.78;31.85;;;;;;;;;;1631163;86;21084;-90
2022/11/12 06:20:43;;;;;;;112.12;30.82;;;;;;;;;;1631442;86;21892;-89
2022/11/12 06:23:09;;;;;;;111.28;30.50;;;;;;;;;;1631688;86;20910;-91
2022/11/12 06:25:35;;;;;;;115.57;31.70;;;;;;;;;;1638266;85;20968;-91
2022/11/12 06:28:01;;;;;;;103.58;29.52;;;;;;;;;;1686315;84;21604;-90
2022/11/12 06:30:26;;;;;;;107.35;29.27;;;;;;;;;;1686471;85;20997;-90
2022/11/12 06:32:52;;;;;;;103.85;28.15;;;;;;;;;;1686109;84;21245;-91
2022/11/12 06:35:18;;;;;;;104.83;28.77;;;;;;;;;;1686066;85;20938;-89
2022/11/12 06:37:48;;;;;;;103.55;29.35;;;;;;;;;;1686119;83;21136;-90
2022/11/12 06:40:14;;;;;;;112.97;29.95;;;;;;;;;;1694715;82;21141;-91
2022/11/12 06:42:39;;;;;;;108.47;30.32;;;;;;;;;;1750946;81;20860;-91
2022/11/12 06:45:06;;;;;;;95.07;28.25;;;;;;;;;;1750989;81;21042;-90
2022/11/12 06:47:32;;;;;;;106.55;28.38;;;;;;;;;;1750786;81;21059;-90
2022/11/12 06:49:57;;;;;;;85.55;25.57;;;;;;;;;;1715606;82;20888;-90
2022/11/12 06:52:23;;;;;;;85.80;25.17;;;;;;;;;;1734987;82;20817;-91
2022/11/12 06:54:49;;;;;;;70.83;21.62;;;;;;;;;;1735119;82;20877;-90
2022/11/12 06:57:14;;;;;;;60.15;19.40;;;;;;;;;;1735083;82;21250;-89
2022/11/12 06:59:40;;;;;;;58.20;19.12;;;;;;;;;;1734780;82;20940;-89
2022/11/12 07:02:06;;;;;;;71.37;20.00;;;;;;;;;;1735427;82;20884;-88
2022/11/12 07:04:31;;;;;;;76.15;22.50;;;;;;;;;;1734986;82;22410;-87
2022/11/12 07:06:57;;;;;;;72.45;20.77;;;;;;;;;;1734087;82;20916;-90
2022/11/12 07:09:23;;;;;;;72.50;19.98;;;;;;;;;;1734869;81;21134;-90
2022/11/12 07:14:18;;;;;;;54.93;16.17;;;;;;;;;;1709090;83;21073;-90
2022/11/12 07:16:43;;;;;;;48.28;15.48;;;;;;;;;;1709473;82;20943;-90
2022/11/12 07:19:09;;;;;;;47.60;14.38;;;;;;;;;;1709705;83;21011;-90
2022/11/12 07:21:35;;;;;;;45.75;15.20;;;;;;;;;;1709488;83;21239;-89
2022/11/12 07:24:01;;;;;;;41.18;15.10;;;;;;;;;;1709312;83;21597;-89
2022/11/12 07:26:27;;;;;;;47.00;15.38;;;;;;;;;;1709745;83;20951;-89
2022/11/12 07:28:56;;;;;;;53.52;18.20;;;;;;;;;;1709379;83;20919;-89
2022/11/12 07:31:22;;;;;;;46.58;15.83;;;;;;;;;;1709709;83;21082;-90
2022/11/12 07:33:48;;;;;;;46.70;15.95;;;;;;;;;;1709431;83;21338;-89
2022/11/12 07:36:16;;;;;;;57.40;18.62;;;;;;;;;;1709706;83;20943;-90
2022/11/12 07:38:42;;;;;;;56.08;16.90;;;;;;;;;;1709767;83;21062;-90
2022/11/12 07:41:13;;;;;;;54.42;17.40;;;;;;;;;;1709586;83;21042;-89
2022/11/12 07:43:40;;;;;;;52.62;17.45;;;;;;;;;;1713511;82;21563;-89
2022/11/12 07:46:15;;;;;;;57.05;19.23;;;;;;;;;;1725783;82;21808;-91
2022/11/12 07:48:41;;;;;;;48.33;18.45;;;;;;;;;;1594297;88;21584;-92
2022/11/12 07:51:13;;;;;;;55.67;19.45;;;;;;;;;;1622215;88;21103;-92
2022/11/12 07:53:39;;;;;;;55.10;18.85;;;;;;;;;;1617213;88;21200;-92
2022/11/12 07:56:05;;;;;;;50.48;17.73;;;;;;;;;;1617650;88;21003;-93
2022/11/12 07:58:33;;;;;;;46.92;18.20;;;;;;;;;;1618948;88;21192;-92
2022/11/12 08:01:11;;;;;;;51.53;17.75;;;;;;;;;;1618830;88;21604;-91
2022/11/12 08:03:37;;;;;;;42.58;15.98;;;;;;;;;;1596521;87;21140;-92
2022/11/12 08:06:03;;;;;;;45.35;17.05;;;;;;;;;;1600361;88;21574;-92
2022/11/12 08:08:29;;;;;;;46.20;16.93;;;;;;;;;;1572098;89;21058;-91
2022/11/12 08:10:56;;;;;;;48.40;17.95;;;;;;;;;;1619471;88;21924;-91
2022/11/12 08:13:22;;;;;;;46.30;17.85;;;;;;;;;;1604073;89;21518;-92
2022/11/12 08:15:48;;;;;;;46.90;18.20;;;;;;;;;;1603635;89;21104;-93
2022/11/12 08:18:14;;;;;;;47.13;18.02;;;;;;;;;;1604310;88;21042;-93
2022/11/12 08:20:39;;;;;;;49.60;18.67;;;;;;;;;;1603962;88;21659;-92
2022/11/12 08:23:05;;;;;;;50.23;18.82;;;;;;;;;;1599898;89;21092;-92
2022/11/12 08:25:31;;;;;;;51.90;20.57;;;;;;;;;;1599630;89;21707;-92
2022/11/12 08:27:58;;;;;;;51.30;19.35;;;;;;;;;;1599963;89;20944;-91
2022/11/12 08:30:25;;;;;;;52.55;19.90;;;;;;;;;;1599840;89;21216;-91
2022/11/12 08:33:01;;;;;;;54.10;22.05;;;;;;;;;;1599991;89;21066;-92
2022/11/12 08:35:27;;;;;;;54.67;22.80;;;;;;;;;;1599844;89;21128;-91
2022/11/12 08:38:05;;;;;;;53.92;21.42;;;;;;;;;;1599481;89;21186;-91
2022/11/12 08:40:31;;;;;;;60.43;21.90;;;;;;;;;;1628033;86;21098;-91
2022/11/12 08:43:08;;;;;;;55.85;22.73;;;;;;;;;;1650690;86;21100;-92
2022/11/12 08:45:37;;;;;;;53.70;20.62;;;;;;;;;;1636465;86;21450;-92
2022/11/12 08:48:05;;;;;;;63.30;23.27;;;;;;;;;;1615707;86;21556;-91
2022/11/12 08:50:32;;;;;;;51.35;20.90;;;;;;;;;;1621993;86;21065;-90
2022/11/12 08:53:03;;;;;;;51.88;20.92;;;;;;;;;;1688406;82;21582;-91
2022/11/12 08:55:29;;;;;;;68.78;23.45;;;;;;;;;;1688187;82;21018;-92
2022/11/12 08:57:58;;;;;;;60.63;22.77;;;;;;;;;;1688472;82;21058;-91
2022/11/12 09:00:23;;;;;;;60.65;23.45;;;;;;;;;;1687644;82;21085;-88
2022/11/12 09:02:49;;;;;;;64.25;23.90;;;;;;;;;;1688246;82;21537;-90
2022/11/12 09:05:14;;;;;;;62.23;23.50;;;;;;;;;;1688028;82;21165;-90
2022/11/12 09:07:40;;;;;;;60.43;21.20;;;;;;;;;;1688693;82;20895;-87
2022/11/12 09:10:06;;;;;;;60.40;23.10;;;;;;;;;;1688110;82;21673;-92
2022/11/12 09:12:32;;;;;;;57.85;22.15;;;;;;;;;;1688347;82;21483;-88
2022/11/12 09:14:58;;;;;;;50.95;21.48;;;;;;;;;;1688244;82;20974;-94
2022/11/12 09:17:23;;;;;;;54.25;21.87;;;;;;;;;;1688341;82;20876;-89
2022/11/12 09:19:49;;;;;;;57.33;21.50;;;;;;;;;;1688092;82;20966;-87
2022/11/12 09:22:15;;;;;;;55.60;21.95;;;;;;;;;;1688005;84;20927;-91
2022/11/12 09:24:41;;;;;;;57.43;22.10;;;;;;;;;;1688526;82;21412;-91
2022/11/12 09:27:07;;;;;;;51.85;20.05;;;;;;;;;;1688239;82;21740;-91
2022/11/12 09:29:32;;;;;;;45.15;18.62;;;;;;;;;;1688377;82;20914;-89
2022/11/12 09:31:59;;;;;;;50.78;18.37;;;;;;;;;;1688028;82;20883;-91
2022/11/12 09:34:25;;;;;;;53.35;19.30;;;;;;;;;;1688308;82;21066;-92
2022/11/12 09:36:50;;;;;;;43.95;18.42;;;;;;;;;;1688318;82;21967;-89
2022/11/12 09:39:16;;;;;;;54.50;19.90;;;;;;;;;;1688256;82;20836;-91
2022/11/12 09:41:44;;;;;;;52.85;19.92;;;;;;;;;;1688276;82;20887;-90
2022/11/12 09:44:13;;;;;;;48.17;19.23;;;;;;;;;;1654248;85;21091;-90
2022/11/12 09:46:42;;;;;;;51.68;20.15;;;;;;;;;;1631823;86;21088;-90
2022/11/12 09:49:17;;;;;;;55.92;21.10;;;;;;;;;;1651216;85;21871;-90
2022/11/12 09:51:50;;;;;;;52.33;20.77;;;;;;;;;;1644068;86;21180;-89
2022/11/12 09:54:21;;;;;;;50.23;20.82;;;;;;;;;;1631167;86;21062;-90
2022/11/12 09:56:50;;;;;;;50.35;21.48;;;;;;;;;;1633610;86;21114;-90
2022/11/12 09:59:16;;;;;;;53.60;21.82;;;;;;;;;;1632985;87;21585;-90
2022/11/12 10:01:57;;;;;;;57.85;24.10;;;;;;;;;;1633717;85;21098;-89
2022/11/12 10:04:53;;;;;;;54.85;22.95;;;;;;;;;;1630124;87;21538;-90
2022/11/12 10:07:37;;;;;;;53.50;21.62;;;;;;;;;;1633363;87;20987;-89
2022/11/12 10:10:06;;;;;;;51.53;21.70;;;;;;;;;;1633379;87;21120;-89
2022/11/12 10:12:58;;;;;;;55.38;22.10;;;;;;;;;;1633443;86;21030;-90
2022/11/12 10:19:02;;;;;;;69.67;27.35;;;;;;;;;;1633535;85;21562;-90
2022/11/12 10:21:47;;;;;;;75.35;29.57;;;;;;;;;;1630557;87;21054;-89
2022/11/12 10:24:12;;;;;;;74.60;29.82;;;;;;;;;;1631376;86;21263;-89
2022/11/12 10:26:39;;;;;;;80.65;32.45;;;;;;;;;;1634048;86;21021;-90
2022/11/12 10:29:24;;;;;;;77.08;31.05;;;;;;;;;;1634030;86;21186;-89
2022/11/12 10:31:50;;;;;;;75.45;31.87;;;;;;;;;;1633748;85;21030;-89
2022/11/12 10:34:18;;;;;;;80.47;32.55;;;;;;;;;;1633673;87;21066;-90
2022/11/12 10:37:02;;;;;;;79.65;32.95;;;;;;;;;;1670343;84;21374;-87
2022/11/12 10:39:43;;;;;;;78.65;31.50;;;;;;;;;;1664672;86;21081;-87
2022/11/12 10:42:11;;;;;;;57.80;24.27;;;;;;;;;;1712944;83;21201;-87
2022/11/12 10:44:41;;;;;;;43.25;20.20;;;;;;;;;;1679762;85;20962;-90
2022/11/12 10:47:28;;;;;;;42.05;18.70;;;;;;;;;;1602159;87;21605;-87
2022/11/12 10:50:12;;;;;;;38.73;18.17;;;;;;;;;;1577947;89;21067;-91
2022/11/12 10:52:38;;;;;;;37.65;16.95;;;;;;;;;;1587743;90;21129;-85
2022/11/12 10:55:16;;;;;;;39.60;17.07;;;;;;;;;;1590825;90;21159;-89
2022/11/12 10:57:42;;;;;;;31.17;15.25;;;;;;;;;;1588779;90;21058;-85
2022/11/12 11:00:15;;;;;;;30.23;14.28;;;;;;;;;;1590749;90;20931;-88
2022/11/12 11:02:51;;;;;;;;;;;;;;;;;;1590536;90;20983;-90
2022/11/12 11:05:34;;;;;;;31.57;14.30;;;;;;;;;;1569697;90;20322;-90
2022/11/12 11:08:00;;;;;;;;;;;;;;;;;;1568335;90;21155;-91
2022/11/12 11:10:34;;;;;;;30.40;13.22;;;;;;;;;;1569460;90;20771;-91
2022/11/12 11:16:00;;;;;;;29.23;13.45;;;;;;;;;;1595203;88;21061;-90
2022/11/12 11:18:27;;;;;;;29.35;14.15;;;;;;;;;;1623126;88;21145;-90
2022/11/12 11:20:56;;;;;;;27.25;12.58;;;;;;;;;;1616943;88;21922;-90
2022/11/12 11:23:28;;;;;;;25.17;11.53;;;;;;;;;;1594748;88;21287;-91
2022/11/12 11:25:56;;;;;;;31.68;12.75;;;;;;;;;;1595167;88;21024;-91
2022/11/12 11:28:40;;;;;;;28.87;12.78;;;;;;;;;;1595014;88;21116;-91
2022/11/12 11:31:36;;;;;;;26.33;11.43;;;;;;;;;;1591801;88;21671;-90
2022/11/12 11:34:17;;;;;;;28.23;13.25;;;;;;;;;;1594739;88;21233;-91
2022/11/12 11:37:13;;;;;;;33.78;14.87;;;;;;;;;;1582768;90;21142;-91
2022/11/12 11:40:05;;;;;;;32.23;14.90;;;;;;;;;;1546558;91;21084;-91
2022/11/12 11:42:41;;;;;;;36.58;15.88;;;;;;;;;;1545225;91;21159;-90
2022/11/12 11:45:28;;;;;;;39.35;16.87;;;;;;;;;;1560189;89;21164;-91
2022/11/12 11:48:03;;;;;;;36.28;15.20;;;;;;;;;;1554378;90;21259;-91
2022/11/12 11:50:48;;;;;;;36.90;14.87;;;;;;;;;;1551199;91;21125;-91
2022/11/12 11:53:29;;;;;;;39.67;16.15;;;;;;;;;;1479511;95;21089;-91
2022/11/12 11:56:01;;;;;;;41.95;16.82;;;;;;;;;;1479263;95;21084;-90
2022/11/12 11:58:45;;;;;;;46.15;17.23;;;;;;;;;;1415047;98;21104;-90
2022/11/12 12:01:23;;;;;;;44.38;17.65;;;;;;;;;;1411383;100;21210;-89
2022/11/12 12:04:16;;;;;;;41.83;18.73;;;;;;;;;;1397649;99;21175;-90
2022/11/12 12:06:54;;;;;;;46.40;17.77;;;;;;;;;;1393908;100;21216;-90
2022/11/12 12:09:36;;;;;;;40.60;17.10;;;;;;;;;;1354028;104;21199;-89
2022/11/12 12:12:23;;;;;;;40.28;17.35;;;;;;;;;;1350483;104;21163;-92
2022/11/12 12:14:55;;;;;;;47.48;17.02;;;;;;;;;;1369500;102;21639;-90
2022/11/12 12:17:24;;;;;;;39.55;17.10;;;;;;;;;;1388627;103;21757;-91
2022/11/12 12:20:02;;;;;;;44.08;16.42;;;;;;;;;;1382827;102;21128;-91
2022/11/12 12:22:38;;;;;;;45.73;17.87;;;;;;;;;;1382619;103;21197;-90
2022/11/12 12:25:10;;;;;;;41.42;16.75;;;;;;;;;;1379993;103;21581;-91
2022/11/12 12:27:38;;;;;;;45.95;18.20;;;;;;;;;;1412068;99;21632;-90
2022/11/12 12:30:16;;;;;;;42.17;17.57;;;;;;;;;;1436365;96;21519;-90
2022/11/12 12:32:48;;;;;;;35.80;14.40;;;;;;;;;;1457043;96;21147;-90
2022/11/12 12:35:46;;;;;;;36.53;12.75;;;;;;;;;;1491225;92;21137;-90
2022/11/12 12:38:45;;;;;;;26.40;9.80;;;;;;;;;;1519532;93;21125;-90
2022/11/12 12:41:17;;;;;;;25.65;10.18;;;;;;;;;;1519617;93;21926;-90
2022/11/12 12:43:51;;;;;;;26.02;10.48;;;;;;;;;;1519114;94;21089;-90
2022/11/12 12:46:21;;;;;;;31.33;12.90;;;;;;;;;;1544803;91;21121;-91
2022/11/12 12:48:48;;;;;;;43.17;14.33;;;;;;;;;;1565923;91;21713;-89
2022/11/12 12:51:14;;;;;;;40.65;15.23;;;;;;;;;;1565370;90;21106;-89
2022/11/12 12:53:40;;;;;;;42.65;14.87;;;;;;;;;;1565296;91;21190;-89
2022/11/12 12:56:15;;;;;;;36.73;14.30;;;;;;;;;;1652489;86;20963;-92
2022/11/12 12:58:47;;;;;;;41.95;14.95;;;;;;;;;;1666347;86;21173;-90
2022/11/12 13:01:23;;;;;;;45.85;16.42;;;;;;;;;;1668119;86;21686;-90
2022/11/12 13:03:57;;;;;;;43.00;15.83;;;;;;;;;;1668264;85;21178;-92
2022/11/12 13:06:47;;;;;;;39.05;15.83;;;;;;;;;;1668303;86;21747;-91
2022/11/12 13:09:16;;;;;;;39.70;14.83;;;;;;;;;;1668066;84;21618;-89
2022/11/12 13:14:38;;;;;;;46.92;16.60;;;;;;;;;;1667806;86;21631;-90
2022/11/12 13:17:09;;;;;;;33.47;13.07;;;;;;;;;;1668361;86;21154;-91
2022/11/12 13:19:48;;;;;;;35.00;13.58;;;;;;;;;;1665331;84;22145;-89
2022/11/12 13:22:22;;;;;;;33.88;13.30;;;;;;;;;;1668297;83;21105;-91
2022/11/12 13:25:11;;;;;;;36.20;13.00;;;;;;;;;;1671307;85;21192;-90
2022/11/12 13:27:43;;;;;;;32.35;11.75;;;;;;;;;;1671730;85;21175;-92
2022/11/12 13:30:16;;;;;;;38.88;13.40;;;;;;;;;;1671856;85;21041;-90
2022/11/12 13:32:51;;;;;;;39.08;13.15;;;;;;;;;;1671990;85;21259;-90
2022/11/12 13:35:34;;;;;;;30.72;12.33;;;;;;;;;;1672481;85;21010;-88
2022/11/12 13:38:10;;;;;;;28.35;11.57;;;;;;;;;;1673446;85;21077;-89
2022/11/12 13:40:51;;;;;;;34.45;12.50;;;;;;;;;;1673164;85;21018;-89
2022/11/12 13:43:39;;;;;;;33.55;11.30;;;;;;;;;;1673442;85;21025;-89
2022/11/12 13:46:15;;;;;;;25.02;10.25;;;;;;;;;;1673594;85;21168;-89
2022/11/12 13:48:47;;;;;;;29.98;11.57;;;;;;;;;;1673108;85;21021;-88
2022/11/12 13:51:37;;;;;;;30.05;10.98;;;;;;;;;;1656784;84;21071;-90
2022/11/12 13:54:24;;;;;;;28.45;10.55;;;;;;;;;;1691098;84;21017;-90
2022/11/12 13:56:50;;;;;;;34.50;12.65;;;;;;;;;;1691121;84;21584;-89
2022/11/12 13:59:18;;;;;;;32.08;11.60;;;;;;;;;;1691307;84;21097;-90
2022/11/12 14:01:44;;;;;;;28.42;11.35;;;;;;;;;;1654979;86;21413;-89
2022/11/12 14:04:12;;;;;;;30.97;12.03;;;;;;;;;;1655353;86;21070;-89
2022/11/12 14:06:43;;;;;;;32.13;12.20;;;;;;;;;;1655263;86;21579;-89
2022/11/12 14:09:24;;;;;;;31.65;11.73;;;;;;;;;;1654867;86;21127;-91
2022/11/12 14:11:56;;;;;;;31.85;12.05;;;;;;;;;;1655097;86;22460;-91
2022/11/12 14:14:25;;;;;;;31.10;11.57;;;;;;;;;;1655306;86;21066;-91
2022/11/12 14:17:10;;;;;;;35.43;11.85;;;;;;;;;;1655201;86;21126;-90
2022/11/12 14:19:46;;;;;;;29.50;11.30;;;;;;;;;;1651696;86;21039;-89
2022/11/12 14:22:16;;;;;;;31.30;12.75;;;;;;;;;;1654955;86;21144;-90
2022/11/12 14:24:43;;;;;;;31.42;12.30;;;;;;;;;;1655253;86;21982;-88
2022/11/12 14:27:21;;;;;;;32.98;12.03;;;;;;;;;;1654926;86;21035;-90
2022/11/12 14:29:47;;;;;;;35.08;11.63;;;;;;;;;;1572663;89;21060;-89
2022/11/12 14:32:14;;;;;;;33.73;13.03;;;;;;;;;;1572516;91;21674;-90
2022/11/12 14:34:40;;;;;;;38.55;12.78;;;;;;;;;;1569800;91;21083;-89
2022/11/12 14:37:09;;;;;;;39.25;12.82;;;;;;;;;;1572832;91;21816;-91
2022/11/12 14:39:37;;;;;;;35.50;13.65;;;;;;;;;;1574072;89;22251;-92
2022/11/12 14:42:03;;;;;;;34.98;12.98;;;;;;;;;;1581591;89;21097;-91
2022/11/12 14:44:34;;;;;;;39.35;13.18;;;;;;;;;;1605647;89;21681;-92
2022/11/12 14:47:00;;;;;;;32.93;13.30;;;;;;;;;;1556187;92;21540;-90
2022/11/12 14:49:39;;;;;;;33.73;13.05;;;;;;;;;;1556546;92;21210;-91
2022/11/12 14:52:09;;;;;;;38.35;13.60;;;;;;;;;;1544491;92;21614;-92
2022/11/12 14:54:40;;;;;;;34.45;12.78;;;;;;;;;;1539527;92;21179;-91
2022/11/12 14:57:08;;;;;;;43.05;14.00;;;;;;;;;;1537342;93;21131;-92
2022/11/12 14:59:35;;;;;;;35.85;14.20;;;;;;;;;;1539734;93;21112;-89